createdAt,value
2022-07-30T00:01:10.544Z,101320.69
2022-07-30T00:03:36.231Z,101320.69
2022-07-30T00:06:01.959Z,101319.56
2022-07-30T00:08:27.615Z,101320.97
2022-07-30T00:10:53.252Z,101319.03
2022-07-30T00:13:18.882Z,101316.25
2022-07-30T00:15:44.562Z,101311.81
2022-07-30T00:18:10.181Z,101317.38
2022-07-30T00:20:39.442Z,101311.56
2022-07-30T00:23:08.378Z,101313.47
2022-07-30T00:25:34.045Z,101310.69
2022-07-30T00:27:59.670Z,101316.25
2022-07-30T00:30:25.333Z,101312.66
2022-07-30T00:32:51.157Z,101309.59
2022-07-30T00:35:16.790Z,101320.16
2022-07-30T00:37:43.886Z,101309.88
2022-07-30T00:40:09.801Z,101315.16
2022-07-30T00:42:38.097Z,101313.47
2022-07-30T00:45:04.484Z,101316.25
2022-07-30T00:47:30.128Z,101318.19
2022-07-30T00:49:55.744Z,101316.25
2022-07-30T00:52:21.393Z,101311.81
2022-07-30T00:54:47.209Z,101314.59
2022-07-30T00:57:12.952Z,101317.38
2022-07-30T00:59:38.573Z,101313.47
2022-07-30T01:02:04.384Z,101324.56
2022-07-30T01:04:30.278Z,101321.78
2022-07-30T01:06:55.942Z,101319.03
2022-07-30T01:09:21.612Z,101319.88
2022-07-30T01:11:47.369Z,101323.75
2022-07-30T01:14:13.097Z,101323.47
2022-07-30T01:16:41.872Z,101318.19
2022-07-30T01:19:34.494Z,101317.94
2022-07-30T01:22:08.221Z,101319.03
2022-07-30T01:24:39.553Z,101319.88
2022-07-30T01:27:06.756Z,101320.69
2022-07-30T01:29:33.078Z,101326.25
2022-07-30T01:31:59.359Z,101321.78
2022-07-30T01:34:29.101Z,101327.34
2022-07-30T01:36:56.693Z,101323.75
2022-07-30T01:39:22.899Z,101322.66
2022-07-30T01:41:49.761Z,101317.94
2022-07-30T01:44:16.313Z,101317.09
2022-07-30T01:46:50.329Z,101317.94
2022-07-30T01:49:16.921Z,101319.03
2022-07-30T01:51:43.813Z,101321.78
2022-07-30T01:54:10.504Z,101318.19
2022-07-30T01:56:36.629Z,101325.44
2022-07-30T01:59:02.522Z,101322.94
2022-07-30T02:01:28.225Z,101322.66
2022-07-30T02:03:54.011Z,101339.31
2022-07-30T02:06:22.531Z,101330.13
2022-07-30T02:08:52.638Z,101333.75
2022-07-30T02:11:38.272Z,101337.34
2022-07-30T02:14:08.505Z,101346.78
2022-07-30T02:16:37.792Z,101337.63
2022-07-30T02:19:19.297Z,101338.44
2022-07-30T02:21:50.388Z,101340.41
2022-07-30T02:24:21.193Z,101339.59
2022-07-30T02:26:49.618Z,101336.81
2022-07-30T02:29:17.346Z,101343.19
2022-07-30T02:31:43.522Z,101336.81
2022-07-30T02:34:10.348Z,101338.44
2022-07-30T02:36:36.929Z,101348.72
2022-07-30T02:39:03.750Z,101338.44
2022-07-30T02:41:30.443Z,101352.34
2022-07-30T02:43:56.717Z,101347.09
2022-07-30T02:46:24.105Z,101355.09
2022-07-30T02:48:50.816Z,101351.22
2022-07-30T02:51:18.236Z,101355.09
2022-07-30T02:53:46.006Z,101357.88
2022-07-30T02:56:12.016Z,101357.06
2022-07-30T02:58:38.569Z,101349.56
2022-07-30T03:01:04.645Z,101351.22
2022-07-30T03:03:31.414Z,101345.13
2022-07-30T03:05:57.508Z,101355.09
2022-07-30T03:08:24.344Z,101346.78
2022-07-30T03:10:50.787Z,101351.50
2022-07-30T03:13:17.341Z,101349.84
2022-07-30T03:15:48.039Z,101351.50
2022-07-30T03:18:14.857Z,101348.72
2022-07-30T03:20:41.796Z,101356.25
2022-07-30T03:23:07.788Z,101349.84
2022-07-30T03:25:34.213Z,101356.25
2022-07-30T03:28:01.277Z,101362.63
2022-07-30T03:30:27.441Z,101362.63
2022-07-30T03:32:54.062Z,101357.06
2022-07-30T03:35:21.141Z,101357.06
2022-07-30T03:37:47.705Z,101360.13
2022-07-30T03:40:13.826Z,101356.25
2022-07-30T03:42:39.575Z,101370.94
2022-07-30T03:45:07.037Z,101367.34
2022-07-30T03:47:34.194Z,101374.03
2022-07-30T03:50:01.095Z,101370.94
2022-07-30T03:52:27.474Z,101367.34
2022-07-30T03:54:53.676Z,101374.53
2022-07-30T03:57:20.445Z,101368.16
2022-07-30T03:59:46.587Z,101379.25
2022-07-30T04:02:12.659Z,101374.84
2022-07-30T04:04:42.413Z,101382.88
2022-07-30T04:07:08.544Z,101385.13
2022-07-30T04:09:34.210Z,101390.69
2022-07-30T04:11:59.899Z,101389.53
2022-07-30T04:14:25.592Z,101387.91
2022-07-30T04:16:58.673Z,101389.53
2022-07-30T04:19:27.741Z,101403.44
2022-07-30T04:21:55.153Z,101399.00
2022-07-30T04:24:21.575Z,101407.34
2022-07-30T04:26:47.457Z,101409.81
2022-07-30T04:29:16.724Z,101406.19
2022-07-30T04:31:44.183Z,101406.19
2022-07-30T04:34:13.087Z,101414.53
2022-07-30T04:36:39.469Z,101412.88
2022-07-30T04:39:05.247Z,101416.47
2022-07-30T04:41:35.370Z,101418.44
2022-07-30T04:44:14.159Z,101422.34
2022-07-30T04:46:39.833Z,101423.97
2022-07-30T04:49:05.558Z,101425.63
2022-07-30T04:51:33.196Z,101427.59
2022-07-30T04:53:59.374Z,101422.03
2022-07-30T04:56:25.525Z,101425.13
2022-07-30T04:58:51.609Z,101429.53
2022-07-30T05:01:22.581Z,101437.03
2022-07-30T05:03:50.364Z,101447.00
2022-07-30T05:06:16.361Z,101436.72
2022-07-30T05:08:42.099Z,101449.78
2022-07-30T05:11:11.510Z,101454.53
2022-07-30T05:13:38.272Z,101450.91
2022-07-30T05:16:04.588Z,101454.53
2022-07-30T05:18:30.350Z,101454.53
2022-07-30T05:20:55.970Z,101447.31
2022-07-30T05:23:21.655Z,101448.97
2022-07-30T05:25:47.281Z,101452.03
2022-07-30T05:28:12.913Z,101452.88
2022-07-30T05:30:38.537Z,101457.59
2022-07-30T05:33:10.965Z,101462.03
2022-07-30T05:35:41.546Z,101460.38
2022-07-30T05:38:07.176Z,101472.31
2022-07-30T05:40:32.826Z,101471.47
2022-07-30T05:42:58.467Z,101468.41
2022-07-30T05:45:24.121Z,101468.41
2022-07-30T05:47:49.761Z,101474.78
2022-07-30T05:50:15.387Z,101475.91
2022-07-30T05:52:41.101Z,101475.91
2022-07-30T05:55:07.542Z,101475.91
2022-07-30T05:57:35.558Z,101478.69
2022-07-30T06:00:03.892Z,101478.69
2022-07-30T06:02:29.539Z,101477.84
2022-07-30T06:04:55.202Z,101479.81
2022-07-30T06:07:20.861Z,101476.72
2022-07-30T06:09:46.532Z,101475.91
2022-07-30T06:12:12.166Z,101481.44
2022-07-30T06:14:37.794Z,101483.69
2022-07-30T06:17:03.743Z,101483.41
2022-07-30T06:19:29.570Z,101484.22
2022-07-30T06:22:06.372Z,101489.78
2022-07-30T06:24:33.174Z,101487.81
2022-07-30T06:26:59.177Z,101490.91
2022-07-30T06:29:25.027Z,101479.81
2022-07-30T06:31:50.654Z,101490.91
2022-07-30T06:34:16.281Z,101490.91
2022-07-30T06:36:41.908Z,101500.06
2022-07-30T06:39:07.542Z,101498.41
2022-07-30T06:41:33.170Z,101503.97
2022-07-30T06:43:58.799Z,101499.22
2022-07-30T06:46:24.457Z,101502.00
2022-07-30T06:48:50.157Z,101512.00
2022-07-30T06:51:15.941Z,101502.00
2022-07-30T06:53:42.767Z,101502.00
2022-07-30T06:56:08.640Z,101498.41
2022-07-30T06:58:34.296Z,101503.97
2022-07-30T07:00:59.995Z,101510.34
2022-07-30T07:03:39.544Z,101511.44
2022-07-30T07:06:06.064Z,101509.50
2022-07-30T07:08:31.700Z,101506.72
2022-07-30T07:10:57.367Z,101512.28
2022-07-30T07:13:23.128Z,101512.28
2022-07-30T07:15:48.889Z,101513.38
2022-07-30T07:18:14.690Z,101513.38
2022-07-30T07:20:40.426Z,101516.72
2022-07-30T07:23:09.207Z,101527.00
2022-07-30T07:25:37.635Z,101526.16
2022-07-30T07:28:11.921Z,101523.38
2022-07-30T07:30:40.014Z,101525.31
2022-07-30T07:33:05.679Z,101527.25
2022-07-30T07:35:32.497Z,101527.00
2022-07-30T07:38:14.226Z,101530.84
2022-07-30T07:40:39.882Z,101526.16
2022-07-30T07:43:05.510Z,101526.16
2022-07-30T07:45:31.155Z,101525.31
2022-07-30T07:47:56.814Z,101531.72
2022-07-30T07:50:22.454Z,101526.16
2022-07-30T07:52:48.210Z,101523.38
2022-07-30T07:55:13.857Z,101520.63
2022-07-30T07:57:40.883Z,101527.00
2022-07-30T08:00:08.137Z,101522.53
2022-07-30T08:02:34.152Z,101525.31
2022-07-30T08:04:59.839Z,101523.38
2022-07-30T08:07:25.469Z,101518.94
2022-07-30T08:09:51.096Z,101525.31
2022-07-30T08:12:17.031Z,101524.47
2022-07-30T08:14:42.664Z,101518.09
2022-07-30T08:17:09.115Z,101513.13
2022-07-30T08:19:35.015Z,101517.84
2022-07-30T08:22:00.665Z,101515.88
2022-07-30T08:24:26.291Z,101508.66
2022-07-30T08:26:51.963Z,101515.34
2022-07-30T08:29:17.641Z,101514.22
2022-07-30T08:31:43.270Z,101517.84
2022-07-30T08:34:08.909Z,101514.50
2022-07-30T08:36:34.548Z,101516.97
2022-07-30T08:39:00.241Z,101517.84
2022-07-30T08:41:26.275Z,101521.72
2022-07-30T08:43:52.675Z,101522.53
2022-07-30T08:46:20.850Z,101524.47
2022-07-30T08:48:46.745Z,101521.72
2022-07-30T08:51:12.595Z,101528.94
2022-07-30T08:53:38.569Z,101522.84
2022-07-30T08:56:06.915Z,101527.25
2022-07-30T08:58:34.487Z,101517.28
2022-07-30T09:01:01.206Z,101523.38
2022-07-30T09:03:27.016Z,101518.94
2022-07-30T09:05:52.685Z,101520.88
2022-07-30T09:08:18.838Z,101528.09
2022-07-30T09:10:49.496Z,101528.09
2022-07-30T09:13:24.165Z,101532.53
2022-07-30T09:15:49.906Z,101524.78
2022-07-30T09:18:25.761Z,101535.59
2022-07-30T09:20:51.377Z,101530.03
2022-07-30T09:23:17.009Z,101531.16
2022-07-30T09:25:44.425Z,101528.38
2022-07-30T09:28:16.185Z,101524.47
2022-07-30T09:30:51.632Z,101524.47
2022-07-30T09:33:34.901Z,101532.00
2022-07-30T09:36:01.366Z,101529.22
2022-07-30T09:38:27.632Z,101530.03
2022-07-30T09:40:57.767Z,101532.00
2022-07-30T09:43:27.629Z,101529.22
2022-07-30T09:45:57.814Z,101528.09
2022-07-30T09:48:25.307Z,101526.44
2022-07-30T09:50:51.878Z,101527.56
2022-07-30T09:53:17.886Z,101531.16
2022-07-30T09:55:43.998Z,101539.50
2022-07-30T10:00:58.182Z,101541.13
2022-07-30T10:03:41.600Z,101531.16
2022-07-30T10:06:08.964Z,101524.78
2022-07-30T10:08:49.193Z,101528.38
2022-07-30T10:11:22.781Z,101522.53
2022-07-30T10:13:53.675Z,101518.94
2022-07-30T10:16:19.602Z,101529.22
2022-07-30T10:18:45.382Z,101520.88
2022-07-30T10:21:12.090Z,101527.25
2022-07-30T10:23:44.176Z,101520.88
2022-07-30T10:26:10.727Z,101519.75
2022-07-30T10:28:39.655Z,101523.66
2022-07-30T10:31:46.423Z,101532.81
2022-07-30T10:33:51.237Z,101535.59
2022-07-30T10:36:17.042Z,101523.66
2022-07-30T10:38:45.086Z,101530.03
2022-07-30T10:41:43.523Z,101537.53
2022-07-30T10:47:17.926Z,101534.75
2022-07-30T10:55:13.591Z,101520.06
2022-07-30T11:03:14.948Z,101509.78
2022-07-30T11:05:44.225Z,101516.47
2022-07-30T11:08:42.468Z,101508.13
2022-07-30T11:14:02.956Z,101510.91
2022-07-30T11:19:55.236Z,101503.41
2022-07-30T11:22:26.392Z,101508.13
2022-07-30T11:24:52.558Z,101507.00
2022-07-30T11:27:41.211Z,101508.13
2022-07-30T11:35:42.138Z,101508.97
2022-07-30T11:38:14.606Z,101497.84
2022-07-30T11:43:36.311Z,101510.09
2022-07-30T11:46:10.150Z,101498.69
2022-07-30T11:48:40.943Z,101506.19
2022-07-30T11:53:34.729Z,101503.41
2022-07-30T11:56:01.444Z,101508.13
2022-07-30T11:58:29.370Z,101511.72
2022-07-30T12:01:00.041Z,101512.56
2022-07-30T12:03:25.942Z,101506.19
2022-07-30T12:05:55.494Z,101501.44
2022-07-30T12:08:34.077Z,101498.69
2022-07-30T12:11:01.869Z,101499.81
2022-07-30T12:13:45.083Z,101494.25
2022-07-30T12:16:15.244Z,101498.69
2022-07-30T12:18:41.248Z,101495.06
2022-07-30T12:21:08.352Z,101495.91
2022-07-30T12:23:34.701Z,101493.13
2022-07-30T12:26:00.595Z,101483.97
2022-07-30T12:28:28.487Z,101487.56
2022-07-30T12:30:55.445Z,101484.81
2022-07-30T12:33:22.151Z,101481.19
2022-07-30T12:35:50.717Z,101477.59
2022-07-30T12:38:17.853Z,101480.06
2022-07-30T12:40:59.736Z,101482.03
2022-07-30T12:43:46.426Z,101475.66
2022-07-30T12:46:17.238Z,101485.63
2022-07-30T12:48:56.403Z,101482.84
2022-07-30T12:51:24.345Z,101483.16
2022-07-30T12:53:51.879Z,101483.97
2022-07-30T12:56:20.642Z,101481.19
2022-07-30T12:58:46.299Z,101481.19
2022-07-30T13:01:12.554Z,101482.84
2022-07-30T13:03:38.622Z,101480.06
2022-07-30T13:06:14.143Z,101473.69
2022-07-30T13:08:47.125Z,101477.28
2022-07-30T13:11:13.322Z,101477.59
2022-07-30T13:13:38.965Z,101477.59
2022-07-30T13:16:05.939Z,101477.28
2022-07-30T13:18:33.649Z,101483.16
2022-07-30T13:21:00.123Z,101477.59
2022-07-30T13:23:26.831Z,101479.25
2022-07-30T13:25:52.880Z,101482.03
2022-07-30T13:28:18.765Z,101489.53
2022-07-30T13:30:44.860Z,101487.56
2022-07-30T13:33:11.035Z,101484.81
2022-07-30T13:38:02.284Z,101480.06
2022-07-30T13:40:31.225Z,101486.75
2022-07-30T13:42:57.780Z,101487.56
2022-07-30T13:45:23.476Z,101474.81
2022-07-30T13:47:49.098Z,101482.84
2022-07-30T13:50:14.727Z,101475.66
2022-07-30T13:52:40.374Z,101474.53
2022-07-30T13:55:06.058Z,101474.53
2022-07-30T13:57:31.697Z,101468.16
2022-07-30T13:59:57.330Z,101463.72
2022-07-30T14:02:22.945Z,101459.00
2022-07-30T14:04:48.569Z,101465.38
2022-07-30T14:07:15.416Z,101460.94
2022-07-30T14:09:44.928Z,101457.03
2022-07-30T14:12:13.470Z,101447.06
2022-07-30T14:14:39.096Z,101459.81
2022-07-30T14:17:05.087Z,101458.69
2022-07-30T14:19:30.879Z,101459.81
2022-07-30T14:21:56.503Z,101448.72
2022-07-30T14:24:22.322Z,101443.16
2022-07-30T14:26:53.263Z,101448.72
2022-07-30T14:29:21.629Z,101440.38
2022-07-30T14:31:47.313Z,101451.50
2022-07-30T14:34:12.941Z,101455.09
2022-07-30T14:36:38.595Z,101445.13
2022-07-30T14:39:04.743Z,101450.38
2022-07-30T14:41:30.760Z,101452.31
2022-07-30T14:43:56.406Z,101440.38
2022-07-30T14:46:22.304Z,101429.28
2022-07-30T14:48:48.563Z,101437.63
2022-07-30T14:51:19.664Z,101444.81
2022-07-30T14:53:47.311Z,101437.63
2022-07-30T14:56:13.113Z,101444.00
2022-07-30T14:58:38.765Z,101440.38
2022-07-30T15:01:15.004Z,101438.44
2022-07-30T15:03:42.324Z,101441.22
2022-07-30T15:06:08.857Z,101436.78
2022-07-30T15:08:35.058Z,101443.16
2022-07-30T15:11:05.303Z,101437.63
2022-07-30T15:13:33.481Z,101429.28
2022-07-30T15:16:00.735Z,101439.56
2022-07-30T15:18:26.385Z,101437.63
2022-07-30T15:20:52.053Z,101429.28
2022-07-30T15:23:17.694Z,101434.56
2022-07-30T15:25:44.487Z,101432.06
2022-07-30T15:28:10.118Z,101431.25
2022-07-30T15:30:35.961Z,101444.00
2022-07-30T15:33:01.599Z,101440.38
2022-07-30T15:35:27.230Z,101433.72
2022-07-30T15:37:52.866Z,101438.44
2022-07-30T15:40:18.557Z,101432.88
2022-07-30T15:42:44.359Z,101438.44
2022-07-30T15:45:18.483Z,101424.56
2022-07-30T15:47:44.398Z,101420.97
2022-07-30T15:50:10.089Z,101429.28
2022-07-30T15:52:35.929Z,101421.78
2022-07-30T15:55:03.901Z,101423.47
2022-07-30T15:57:30.748Z,101429.84
2022-07-30T15:59:56.972Z,101426.25
2022-07-30T16:02:22.768Z,101428.16
2022-07-30T16:04:48.428Z,101424.56
2022-07-30T16:07:14.145Z,101432.06
2022-07-30T16:09:39.912Z,101430.94
2022-07-30T16:12:07.013Z,101430.94
2022-07-30T16:14:33.750Z,101430.94
2022-07-30T16:16:59.388Z,101426.50
2022-07-30T16:19:25.095Z,101429.28
2022-07-30T16:21:51.098Z,101422.59
2022-07-30T16:24:16.883Z,101423.47
2022-07-30T16:26:42.507Z,101429.00
2022-07-30T16:29:13.563Z,101426.25
2022-07-30T16:31:39.641Z,101417.34
2022-07-30T16:34:05.611Z,101415.41
2022-07-30T16:36:31.238Z,101419.84
2022-07-30T16:38:56.881Z,101404.31
2022-07-30T16:41:22.524Z,101414.28
2022-07-30T16:43:48.154Z,101420.69
2022-07-30T16:46:13.781Z,101415.13
2022-07-30T16:48:39.413Z,101407.91
2022-07-30T16:51:05.897Z,101408.72
2022-07-30T16:53:31.519Z,101411.50
2022-07-30T16:55:57.637Z,101407.09
2022-07-30T16:58:28.360Z,101407.91
2022-07-30T17:00:56.959Z,101405.13
2022-07-30T17:03:24.342Z,101400.41
2022-07-30T17:05:50.422Z,101410.69
2022-07-30T17:08:17.667Z,101404.31
2022-07-30T17:10:43.926Z,101402.34
2022-07-30T17:13:09.595Z,101403.19
2022-07-30T17:15:35.228Z,101405.13
2022-07-30T17:18:01.111Z,101405.94
2022-07-30T17:20:27.395Z,101405.94
2022-07-30T17:22:56.102Z,101412.38
2022-07-30T17:25:24.762Z,101411.50
2022-07-30T17:27:50.386Z,101410.69
2022-07-30T17:30:16.469Z,101412.63
2022-07-30T17:32:42.088Z,101415.41
2022-07-30T17:35:12.126Z,101412.63
2022-07-30T17:37:39.422Z,101419.84
2022-07-30T17:40:26.709Z,101418.72
2022-07-30T17:42:51.270Z,101419.84
2022-07-30T17:45:16.888Z,101419.84
2022-07-30T17:47:42.597Z,101419.00
2022-07-30T17:50:08.679Z,101421.78
2022-07-30T17:52:34.313Z,101425.38
2022-07-30T17:55:00.188Z,101429.00
2022-07-30T17:57:26.146Z,101428.16
2022-07-30T17:59:51.769Z,101423.47
2022-07-30T18:02:17.414Z,101426.25
2022-07-30T18:04:46.321Z,101425.38
2022-07-30T18:07:11.969Z,101432.88
2022-07-30T18:09:39.276Z,101442.03
2022-07-30T18:12:06.524Z,101434.56
2022-07-30T18:14:32.357Z,101430.94
2022-07-30T18:16:59.082Z,101427.34
2022-07-30T18:19:27.228Z,101442.03
2022-07-30T18:21:53.187Z,101432.88
2022-07-30T18:24:20.244Z,101442.03
2022-07-30T18:26:50.402Z,101436.47
2022-07-30T18:29:16.031Z,101441.22
2022-07-30T18:31:41.651Z,101442.03
2022-07-30T18:34:07.350Z,101443.72
2022-07-30T18:36:32.975Z,101447.59
2022-07-30T18:38:58.594Z,101450.38
2022-07-30T18:41:24.214Z,101448.72
2022-07-30T18:43:49.836Z,101454.00
2022-07-30T18:46:15.486Z,101455.09
2022-07-30T18:48:41.158Z,101442.88
2022-07-30T18:51:09.651Z,101448.44
2022-07-30T18:53:37.679Z,101455.91
2022-07-30T18:56:03.643Z,101453.13
2022-07-30T18:58:29.272Z,101452.03
2022-07-30T19:00:54.945Z,101450.38
2022-07-30T19:03:23.177Z,101449.53
2022-07-30T19:05:49.029Z,101446.75
2022-07-30T19:08:14.646Z,101449.28
2022-07-30T19:10:40.356Z,101444.81
2022-07-30T19:13:06.259Z,101452.03
2022-07-30T19:15:31.896Z,101440.94
2022-07-30T19:17:57.987Z,101445.66
2022-07-30T19:20:25.607Z,101449.28
2022-07-30T19:22:59.459Z,101451.22
2022-07-30T19:25:25.158Z,101457.59
2022-07-30T19:27:50.789Z,101450.38
2022-07-30T19:30:16.414Z,101449.53
2022-07-30T19:32:42.875Z,101451.22
2022-07-30T19:35:10.325Z,101454.00
2022-07-30T19:37:40.208Z,101453.13
2022-07-30T19:40:07.036Z,101456.78
2022-07-30T19:42:32.845Z,101456.78
2022-07-30T19:45:01.357Z,101460.66
2022-07-30T19:47:39.844Z,101463.16
2022-07-30T19:50:09.184Z,101465.94
2022-07-30T19:52:35.244Z,101467.88
2022-07-30T19:55:02.836Z,101471.75
2022-07-30T19:57:45.618Z,101470.66
2022-07-30T20:00:14.829Z,101468.69
2022-07-30T20:02:50.872Z,101467.88
2022-07-30T20:05:16.558Z,101463.41
2022-07-30T20:07:42.706Z,101462.31
2022-07-30T20:10:10.702Z,101462.31
2022-07-30T20:12:39.681Z,101460.38
2022-07-30T20:17:53.997Z,101470.66
2022-07-30T20:20:24.642Z,101467.03
2022-07-30T20:22:52.233Z,101463.41
2022-07-30T20:25:18.254Z,101471.47
2022-07-30T20:27:47.418Z,101470.66
2022-07-30T20:30:14.765Z,101474.25
2022-07-30T20:32:46.367Z,101485.34
2022-07-30T20:35:12.498Z,101470.66
2022-07-30T20:37:40.270Z,101471.47
2022-07-30T20:40:20.762Z,101474.25
2022-07-30T20:42:46.819Z,101470.66
2022-07-30T20:45:12.926Z,101473.13
2022-07-30T20:47:39.046Z,101463.41
2022-07-30T20:50:09.457Z,101470.66
2022-07-30T20:52:36.217Z,101472.31
2022-07-30T20:55:02.455Z,101473.44
2022-07-30T20:57:55.921Z,101475.06
2022-07-30T21:00:17.575Z,101478.69
2022-07-30T21:02:45.791Z,101473.44
2022-07-30T21:05:17.019Z,101470.66
2022-07-30T21:07:45.618Z,101475.06
2022-07-30T21:10:12.473Z,101476.19
2022-07-30T21:12:40.414Z,101473.44
2022-07-30T21:15:23.899Z,101476.19
2022-07-30T21:17:50.056Z,101460.38
2022-07-30T21:20:16.494Z,101463.16
2022-07-30T21:22:53.748Z,101463.97
2022-07-30T21:25:20.076Z,101463.16
2022-07-30T21:27:49.303Z,101453.13
2022-07-30T21:30:15.986Z,101453.69
2022-07-30T21:32:41.633Z,101454.00
2022-07-30T21:35:08.590Z,101457.59
2022-07-30T21:37:37.433Z,101454.00
2022-07-30T21:40:08.890Z,101456.78
2022-07-30T21:42:34.524Z,101454.81
2022-07-30T21:45:00.489Z,101452.88
2022-07-30T21:47:26.135Z,101452.88
2022-07-30T21:49:51.758Z,101447.31
2022-07-30T21:52:18.873Z,101447.31
2022-07-30T21:54:48.860Z,101451.22
2022-07-30T21:57:23.285Z,101446.50
2022-07-30T21:59:52.805Z,101440.13
2022-07-30T22:02:21.760Z,101448.44
2022-07-30T22:04:50.449Z,101439.25
2022-07-30T22:07:16.518Z,101443.72
2022-07-30T22:09:42.137Z,101442.88
2022-07-30T22:12:11.796Z,101444.53
2022-07-30T22:14:38.635Z,101430.66
2022-07-30T22:17:04.966Z,101443.72
2022-07-30T22:19:30.985Z,101429.00
2022-07-30T22:21:57.554Z,101433.72
2022-07-30T22:24:29.038Z,101440.13
2022-07-30T22:26:57.675Z,101429.00
2022-07-30T22:29:25.965Z,101431.78
2022-07-30T22:31:51.857Z,101435.38
2022-07-30T22:34:17.717Z,101431.50
2022-07-30T22:36:45.588Z,101424.28
2022-07-30T22:39:11.407Z,101422.59
2022-07-30T22:41:38.341Z,101426.25
2022-07-30T22:44:04.191Z,101434.56
2022-07-30T22:46:35.847Z,101424.56
2022-07-30T22:49:03.609Z,101426.25
2022-07-30T22:51:50.177Z,101429.84
2022-07-30T22:54:15.416Z,101427.06
2022-07-30T22:56:41.554Z,101427.88
2022-07-30T22:59:07.211Z,101428.16
2022-07-30T23:01:32.909Z,101434.56
2022-07-30T23:03:58.639Z,101436.22
2022-07-30T23:06:27.236Z,101429.84
2022-07-30T23:08:53.146Z,101427.34
2022-07-30T23:11:18.777Z,101444.53
2022-07-30T23:12:16.037Z,101467.88
2022-07-30T23:13:46.597Z,101425.38
2022-07-30T23:16:12.225Z,101427.88
2022-07-30T23:18:37.870Z,101431.78
2022-07-30T23:21:03.996Z,101431.78
2022-07-30T23:23:33.783Z,101427.06
2022-07-30T23:26:00.607Z,101418.72
2022-07-30T23:28:26.233Z,101421.50
2022-07-30T23:30:51.861Z,101417.91
2022-07-30T23:33:17.501Z,101420.69
2022-07-30T23:35:43.426Z,101416.78
2022-07-30T23:38:09.053Z,101418.72
2022-07-30T23:40:34.852Z,101416.78
2022-07-30T23:43:00.555Z,101411.22
2022-07-30T23:45:26.179Z,101402.09
2022-07-30T23:48:01.515Z,101411.50
2022-07-30T23:50:30.148Z,101401.25
2022-07-30T23:52:55.846Z,101406.81
2022-07-30T23:55:21.560Z,101402.91
2022-07-30T23:57:47.258Z,101400.13
